createdAt,value
2023-03-17T00:01:28.863Z,1.51
2023-03-17T00:04:38.283Z,1.47
2023-03-17T00:07:44.374Z,1.45
2023-03-17T00:10:51.356Z,1.42
2023-03-17T00:13:58.952Z,1.42
2023-03-17T00:17:05.599Z,1.43
2023-03-17T00:20:27.894Z,1.40
2023-03-17T00:23:35.500Z,1.31
2023-03-17T00:26:42.750Z,1.12
2023-03-17T00:29:49.431Z,1.29
2023-03-17T00:33:01.497Z,1.32
2023-03-17T00:36:21.533Z,1.34
2023-03-17T00:39:28.103Z,1.22
2023-03-17T00:42:35.379Z,1.11
2023-03-17T00:45:43.039Z,1.09
2023-03-17T00:48:50.404Z,1.14
2023-03-17T00:51:59.986Z,1.10
2023-03-17T00:55:08.105Z,0.95
2023-03-17T00:58:20.708Z,0.91
2023-03-17T01:01:30.200Z,0.95
2023-03-17T01:04:36.784Z,0.83
2023-03-17T01:07:53.039Z,0.80
2023-03-17T01:10:59.707Z,0.82
2023-03-17T01:14:06.846Z,0.79
2023-03-17T01:17:20.869Z,0.67
2023-03-17T01:20:31.967Z,0.55
2023-03-17T01:23:41.260Z,0.55
2023-03-17T01:26:48.086Z,0.61
2023-03-17T01:29:59.003Z,0.72
2023-03-17T01:33:05.878Z,0.83
2023-03-17T01:36:14.261Z,0.94
2023-03-17T01:39:23.531Z,0.92
2023-03-17T01:42:32.776Z,0.78
2023-03-17T01:46:20.942Z,0.78
2023-03-17T01:49:36.890Z,0.73
2023-03-17T01:52:44.740Z,0.69
2023-03-17T01:55:56.937Z,0.70
2023-03-17T01:59:10.085Z,0.74
2023-03-17T02:02:23.271Z,0.71
2023-03-17T02:05:33.944Z,0.60
2023-03-17T02:08:39.685Z,0.60
2023-03-17T02:11:50.780Z,0.69
2023-03-17T02:14:56.873Z,0.77
2023-03-17T02:18:03.845Z,0.79
2023-03-17T02:21:51.564Z,0.84
2023-03-17T02:25:02.188Z,0.97
2023-03-17T02:28:16.332Z,1.04
2023-03-17T02:31:24.943Z,1.00
2023-03-17T02:34:31.657Z,0.98
2023-03-17T02:37:42.027Z,0.98
2023-03-17T02:40:47.756Z,0.95
2023-03-17T02:43:55.586Z,0.90
2023-03-17T02:47:01.498Z,0.84
2023-03-17T02:50:10.237Z,0.79
2023-03-17T02:53:19.525Z,0.77
2023-03-17T02:56:25.332Z,0.59
2023-03-17T02:59:32.232Z,0.41
2023-03-17T03:02:38.186Z,0.38
2023-03-17T03:05:44.960Z,0.33
2023-03-17T03:08:53.459Z,0.31
2023-03-17T03:12:00.182Z,0.35
2023-03-17T03:15:07.117Z,0.47
2023-03-17T03:18:13.752Z,0.57
2023-03-17T03:21:19.978Z,0.68
2023-03-17T03:24:29.252Z,0.77
2023-03-17T03:27:35.078Z,0.82
2023-03-17T03:30:44.770Z,0.84
2023-03-17T03:33:50.788Z,0.89
2023-03-17T03:36:57.819Z,0.86
2023-03-17T03:40:07.543Z,0.96
2023-03-17T03:43:23.079Z,0.94
2023-03-17T03:46:30.171Z,0.85
2023-03-17T03:49:36.775Z,0.69
2023-03-17T03:52:42.837Z,0.53
2023-03-17T03:55:52.020Z,0.42
2023-03-17T03:58:57.688Z,0.41
2023-03-17T04:02:04.252Z,0.34
2023-03-17T04:05:13.168Z,0.34
2023-03-17T04:08:19.766Z,0.32
2023-03-17T04:11:28.165Z,0.19
2023-03-17T04:14:34.896Z,0.05
2023-03-17T04:17:41.320Z,-0.09
2023-03-17T04:20:47.895Z,-0.18
2023-03-17T04:23:55.185Z,-0.41
2023-03-17T04:27:06.085Z,-0.56
2023-03-17T04:30:17.162Z,-0.60
2023-03-17T04:33:23.813Z,-0.70
2023-03-17T04:36:30.340Z,-0.74
2023-03-17T04:39:37.111Z,-0.71
2023-03-17T04:42:45.678Z,-0.65
2023-03-17T04:45:52.415Z,-0.50
2023-03-17T04:48:59.509Z,-0.38
2023-03-17T04:52:06.865Z,-0.28
2023-03-17T04:55:14.804Z,-0.19
2023-03-17T04:58:30.792Z,-0.07
2023-03-17T05:01:39.140Z,0.06
2023-03-17T05:04:48.991Z,0.01
2023-03-17T05:07:54.718Z,-0.13
2023-03-17T05:11:02.181Z,-0.27
2023-03-17T05:14:10.596Z,-0.37
2023-03-17T05:17:17.440Z,-0.52
2023-03-17T05:20:23.353Z,-0.59
2023-03-17T05:23:30.359Z,-0.60
2023-03-17T05:26:36.550Z,-0.65
2023-03-17T05:29:47.832Z,-0.64
2023-03-17T05:32:53.798Z,-0.58
2023-03-17T05:36:00.593Z,-0.52
2023-03-17T05:39:07.898Z,-0.49
2023-03-17T05:42:15.773Z,-0.52
2023-03-17T05:45:24.391Z,-0.54
2023-03-17T05:48:31.048Z,-0.59
2023-03-17T05:51:37.208Z,-0.54
2023-03-17T05:54:44.884Z,-0.45
2023-03-17T05:57:51.030Z,-0.40
2023-03-17T06:01:00.365Z,-0.31
2023-03-17T06:04:06.147Z,-0.21
2023-03-17T06:07:13.925Z,-0.12
2023-03-17T06:10:20.680Z,-0.08
2023-03-17T06:13:28.873Z,0.00
2023-03-17T06:16:37.247Z,0.08
2023-03-17T06:19:44.053Z,0.21
2023-03-17T06:23:03.458Z,0.35
2023-03-17T06:26:12.658Z,0.36
2023-03-17T06:29:18.611Z,0.24
2023-03-17T06:32:28.413Z,0.23
2023-03-17T06:35:36.169Z,0.33
2023-03-17T06:38:43.854Z,0.62
2023-03-17T06:41:49.960Z,1.19
2023-03-17T06:44:56.940Z,1.72
2023-03-17T06:48:07.097Z,2.33
2023-03-17T06:51:13.997Z,2.88
2023-03-17T06:54:20.748Z,3.36
2023-03-17T06:57:27.312Z,3.95
2023-03-17T07:00:33.413Z,4.58
2023-03-17T07:03:42.608Z,4.81
2023-03-17T07:06:48.418Z,5.09
2023-03-17T07:09:55.075Z,5.50
2023-03-17T07:13:02.489Z,5.99
2023-03-17T07:16:10.130Z,6.63
2023-03-17T07:19:18.668Z,7.32
2023-03-17T07:22:25.814Z,7.70
2023-03-17T07:25:31.768Z,8.11
2023-03-17T07:28:40.451Z,8.38
2023-03-17T07:31:46.400Z,8.78
2023-03-17T07:34:55.549Z,9.10
2023-03-17T07:38:01.227Z,9.43
2023-03-17T07:41:10.018Z,9.50
2023-03-17T07:44:16.289Z,9.72
2023-03-17T07:47:23.092Z,10.18
2023-03-17T07:50:31.468Z,10.75
2023-03-17T07:53:38.034Z,11.33
2023-03-17T07:56:44.005Z,11.97
2023-03-17T07:59:50.761Z,12.20
2023-03-17T08:03:09.334Z,12.48
2023-03-17T08:06:19.468Z,13.07
2023-03-17T08:09:25.792Z,13.60
2023-03-17T08:12:32.536Z,13.82
2023-03-17T08:15:38.514Z,13.96
2023-03-17T08:18:45.312Z,13.91
2023-03-17T08:21:54.071Z,13.95
2023-03-17T08:25:00.719Z,13.82
2023-03-17T08:28:06.678Z,13.80
2023-03-17T08:31:17.428Z,14.01
2023-03-17T08:34:24.223Z,14.21
2023-03-17T08:37:35.466Z,14.17
2023-03-17T08:40:43.116Z,14.49
2023-03-17T08:43:51.894Z,14.89
2023-03-17T08:46:58.063Z,15.09
2023-03-17T08:50:08.684Z,15.22
2023-03-17T08:53:17.116Z,15.15
2023-03-17T08:56:24.503Z,15.27
2023-03-17T08:59:30.418Z,15.14
2023-03-17T09:02:37.202Z,14.44
2023-03-17T09:05:44.199Z,14.40
2023-03-17T09:08:55.745Z,14.67
2023-03-17T09:12:03.407Z,14.61
2023-03-17T09:15:13.022Z,14.77
2023-03-17T09:18:21.960Z,15.11
2023-03-17T09:21:29.432Z,15.14
2023-03-17T09:24:37.779Z,15.53
2023-03-17T09:27:44.807Z,16.34
2023-03-17T09:30:50.744Z,16.78
2023-03-17T09:33:57.350Z,16.99
2023-03-17T09:37:03.120Z,16.97
2023-03-17T09:40:22.327Z,17.24
2023-03-17T09:43:42.710Z,17.57
2023-03-17T09:47:05.554Z,17.50
2023-03-17T09:50:21.234Z,17.33
2023-03-17T09:53:36.082Z,17.53
2023-03-17T09:56:54.021Z,17.88
2023-03-17T10:00:08.039Z,18.04
2023-03-17T10:03:15.200Z,18.16
2023-03-17T10:06:39.383Z,18.64
2023-03-17T10:10:04.232Z,18.98
2023-03-17T10:13:35.193Z,19.32
2023-03-17T10:16:54.886Z,19.03
2023-03-17T10:20:11.624Z,19.13
2023-03-17T10:23:25.023Z,18.96
2023-03-17T10:26:40.767Z,19.21
2023-03-17T10:29:49.828Z,19.17
2023-03-17T10:33:03.392Z,18.85
2023-03-17T10:36:17.426Z,18.42
2023-03-17T10:39:28.292Z,18.55
2023-03-17T10:42:35.798Z,18.12
2023-03-17T10:46:01.246Z,18.11
2023-03-17T10:52:43.631Z,17.44
2023-03-17T10:55:55.654Z,17.44
2023-03-17T10:59:10.946Z,17.76
2023-03-17T11:02:30.665Z,18.07
2023-03-17T11:05:38.320Z,17.96
2023-03-17T11:08:53.868Z,17.62
2023-03-17T11:12:09.757Z,17.55
2023-03-17T11:15:21.682Z,17.97
2023-03-17T11:18:39.147Z,18.14
2023-03-17T11:22:05.088Z,18.00
2023-03-17T11:25:19.748Z,18.12
2023-03-17T11:28:36.435Z,17.91
2023-03-17T11:32:00.891Z,17.86
2023-03-17T11:35:37.089Z,17.88
2023-03-17T11:39:01.358Z,18.18
2023-03-17T11:42:24.357Z,18.47
2023-03-17T11:45:40.550Z,18.68
2023-03-17T11:49:01.653Z,18.79
2023-03-17T11:52:30.276Z,18.18
2023-03-17T11:55:50.360Z,18.02
2023-03-17T11:59:05.068Z,18.15
2023-03-17T12:02:30.826Z,18.78
2023-03-17T12:05:39.973Z,18.84
2023-03-17T12:09:05.611Z,19.02
2023-03-17T12:12:18.176Z,18.68
2023-03-17T12:15:37.290Z,18.20
2023-03-17T12:18:58.105Z,18.40
2023-03-17T12:22:19.560Z,18.78
2023-03-17T12:25:37.027Z,19.15
2023-03-17T12:28:55.643Z,19.35
2023-03-17T12:32:09.967Z,19.50
2023-03-17T12:35:32.330Z,19.65
2023-03-17T12:38:46.710Z,20.15
2023-03-17T12:42:19.572Z,20.35
2023-03-17T12:45:57.615Z,20.59
2023-03-17T12:49:58.141Z,21.12
2023-03-17T12:53:30.957Z,20.77
2023-03-17T12:56:46.797Z,20.45
2023-03-17T13:00:10.317Z,20.58
2023-03-17T13:03:29.066Z,20.02
2023-03-17T13:06:45.515Z,19.81
2023-03-17T13:10:13.412Z,20.06
2023-03-17T13:13:47.265Z,20.32
2023-03-17T13:17:28.941Z,20.44
2023-03-17T13:20:44.937Z,19.39
2023-03-17T13:24:21.825Z,18.96
2023-03-17T13:27:50.420Z,19.00
2023-03-17T13:31:13.378Z,18.99
2023-03-17T13:34:23.844Z,19.18
2023-03-17T13:37:43.923Z,19.20
2023-03-17T13:41:13.284Z,19.40
2023-03-17T13:44:49.605Z,19.44
2023-03-17T13:47:55.824Z,18.90
2023-03-17T13:51:23.515Z,18.29
2023-03-17T13:54:43.868Z,18.15
2023-03-17T13:58:18.590Z,18.32
2023-03-17T14:01:27.605Z,18.65
2023-03-17T14:04:53.639Z,18.89
2023-03-17T14:08:08.726Z,19.20
2023-03-17T14:11:29.796Z,19.62
2023-03-17T14:14:51.220Z,19.68
2023-03-17T14:18:08.368Z,19.88
2023-03-17T14:21:26.512Z,19.83
2023-03-17T14:24:37.279Z,19.67
2023-03-17T14:27:43.931Z,19.54
2023-03-17T14:30:57.597Z,19.28
2023-03-17T14:34:04.783Z,18.74
2023-03-17T14:37:16.007Z,18.49
2023-03-17T14:40:29.674Z,18.38
2023-03-17T14:43:39.655Z,18.40
2023-03-17T14:46:45.790Z,18.34
2023-03-17T14:49:59.748Z,18.33
2023-03-17T14:53:06.606Z,17.92
2023-03-17T14:56:16.964Z,17.60
2023-03-17T14:59:29.805Z,17.39
2023-03-17T15:02:42.515Z,17.01
2023-03-17T15:05:50.073Z,16.70
2023-03-17T15:08:57.511Z,16.37
2023-03-17T15:12:09.963Z,16.54
2023-03-17T15:15:28.053Z,16.51
2023-03-17T15:18:34.388Z,16.78
2023-03-17T15:21:45.658Z,16.81
2023-03-17T15:25:02.971Z,16.71
2023-03-17T15:28:20.099Z,16.62
2023-03-17T15:31:29.603Z,16.20
2023-03-17T15:34:36.632Z,16.05
2023-03-17T15:37:43.068Z,15.95
2023-03-17T15:40:50.165Z,15.78
2023-03-17T15:43:58.456Z,15.73
2023-03-17T15:47:05.839Z,15.68
2023-03-17T15:50:22.045Z,15.59
2023-03-17T15:53:29.152Z,15.56
2023-03-17T15:56:35.641Z,15.59
2023-03-17T15:59:44.925Z,15.45
2023-03-17T16:02:55.669Z,15.29
2023-03-17T16:06:02.694Z,14.95
2023-03-17T16:09:19.756Z,14.61
2023-03-17T16:12:27.822Z,14.43
2023-03-17T16:15:45.012Z,14.19
2023-03-17T16:18:55.317Z,13.90
2023-03-17T16:22:05.273Z,13.79
2023-03-17T16:25:25.586Z,13.64
2023-03-17T16:28:38.029Z,13.51
2023-03-17T16:31:51.983Z,13.45
2023-03-17T16:35:01.006Z,13.56
2023-03-17T16:38:13.743Z,13.57
2023-03-17T16:41:30.702Z,13.45
2023-03-17T16:44:40.875Z,13.40
2023-03-17T16:47:54.088Z,13.33
2023-03-17T16:51:02.150Z,13.20
2023-03-17T16:54:09.389Z,13.11
2023-03-17T16:57:17.077Z,13.04
2023-03-17T17:00:30.403Z,12.82
2023-03-17T17:03:40.960Z,12.70
2023-03-17T17:06:50.670Z,12.47
2023-03-17T17:09:59.586Z,12.33
2023-03-17T17:13:09.605Z,12.13
2023-03-17T17:16:30.389Z,12.00
2023-03-17T17:19:43.719Z,11.73
2023-03-17T17:22:51.047Z,11.53
2023-03-17T17:26:00.351Z,11.20
2023-03-17T17:29:16.121Z,10.92
2023-03-17T17:32:23.816Z,10.92
2023-03-17T17:35:36.188Z,10.87
2023-03-17T17:38:44.775Z,10.86
2023-03-17T17:41:54.373Z,10.70
2023-03-17T17:45:08.023Z,10.62
2023-03-17T17:48:18.311Z,10.51
2023-03-17T17:51:29.179Z,10.61
2023-03-17T17:54:36.694Z,10.45
2023-03-17T17:57:43.226Z,10.34
2023-03-17T18:00:52.742Z,10.12
2023-03-17T18:04:06.490Z,9.70
2023-03-17T18:07:15.837Z,9.82
2023-03-17T18:10:25.926Z,9.67
2023-03-17T18:13:32.648Z,9.93
2023-03-17T18:16:40.616Z,9.77
2023-03-17T18:19:47.763Z,9.87
2023-03-17T18:22:56.908Z,9.94
2023-03-17T18:26:06.119Z,9.69
2023-03-17T18:29:13.015Z,9.51
2023-03-17T18:32:19.812Z,9.44
2023-03-17T18:35:32.780Z,9.22
2023-03-17T18:38:43.875Z,9.29
2023-03-17T18:41:51.513Z,9.17
2023-03-17T18:55:39.638Z,8.86
2023-03-17T18:58:48.605Z,9.03
2023-03-17T19:01:54.701Z,9.07
2023-03-17T19:05:01.701Z,9.06
2023-03-17T19:08:08.363Z,9.07
2023-03-17T19:11:21.428Z,9.06
2023-03-17T19:14:27.713Z,9.02
2023-03-17T19:17:37.132Z,8.89
2023-03-17T19:20:42.983Z,9.01
2023-03-17T19:23:52.392Z,9.01
2023-03-17T19:27:00.796Z,8.77
2023-03-17T19:30:11.726Z,8.74
2023-03-17T19:33:18.993Z,8.67
2023-03-17T19:36:29.233Z,8.65
2023-03-17T19:39:39.296Z,8.61
2023-03-17T19:42:48.590Z,8.59
2023-03-17T19:45:54.739Z,8.51
2023-03-17T19:49:01.856Z,8.47
2023-03-17T19:52:08.044Z,8.47
2023-03-17T19:55:14.739Z,8.38
2023-03-17T19:58:23.308Z,8.32
2023-03-17T20:01:32.154Z,8.30
2023-03-17T20:04:38.097Z,8.21
2023-03-17T20:07:46.548Z,8.07
2023-03-17T20:10:58.822Z,7.98
2023-03-17T20:14:09.215Z,7.87
2023-03-17T20:17:15.599Z,7.78
2023-03-17T20:20:22.407Z,7.59
2023-03-17T20:23:28.862Z,7.41
2023-03-17T20:26:35.553Z,7.32
2023-03-17T20:29:46.748Z,7.18
2023-03-17T20:32:53.390Z,7.17
2023-03-17T20:35:59.683Z,7.06
2023-03-17T20:39:09.443Z,6.95
2023-03-17T20:42:20.443Z,6.92
2023-03-17T20:45:33.505Z,6.90
2023-03-17T20:48:48.791Z,6.83
2023-03-17T20:51:56.236Z,6.78
2023-03-17T20:55:02.942Z,6.69
2023-03-17T20:58:10.293Z,6.62
2023-03-17T21:01:21.524Z,6.55
2023-03-17T21:04:29.470Z,6.57
2023-03-17T21:07:35.374Z,6.48
2023-03-17T21:10:42.180Z,6.40
2023-03-17T21:13:48.703Z,6.43
2023-03-17T21:16:57.966Z,6.40
2023-03-17T21:20:05.157Z,6.29
2023-03-17T21:23:13.579Z,6.24
2023-03-17T21:26:20.219Z,6.13
2023-03-17T21:29:31.044Z,6.12
2023-03-17T21:32:39.957Z,6.10
2023-03-17T21:35:47.379Z,6.04
2023-03-17T21:38:53.905Z,6.02
2023-03-17T21:42:02.199Z,5.90
2023-03-17T21:45:12.264Z,5.75
2023-03-17T21:48:22.038Z,5.60
2023-03-17T21:51:30.375Z,5.56
2023-03-17T21:54:38.285Z,5.40
2023-03-17T21:57:45.287Z,5.28
2023-03-17T22:00:52.396Z,5.25
2023-03-17T22:04:02.618Z,5.24
2023-03-17T22:07:12.204Z,5.27
2023-03-17T22:10:18.846Z,5.25
2023-03-17T22:13:26.344Z,5.18
2023-03-17T22:16:33.160Z,5.16
2023-03-17T22:19:49.121Z,5.02
2023-03-17T22:23:02.014Z,4.95
2023-03-17T22:26:15.882Z,4.84
2023-03-17T22:29:23.887Z,4.78
2023-03-17T22:32:33.649Z,4.65
2023-03-17T22:35:42.899Z,4.68
2023-03-17T22:38:49.883Z,4.71
2023-03-17T22:41:55.799Z,4.70
2023-03-17T22:45:03.039Z,4.76
2023-03-17T22:48:11.029Z,4.70
2023-03-17T22:51:24.625Z,4.78
2023-03-17T22:54:30.453Z,4.78
2023-03-17T22:57:37.207Z,4.70
2023-03-17T23:00:43.188Z,4.70
2023-03-17T23:03:50.359Z,4.76
2023-03-17T23:06:59.218Z,4.85
2023-03-17T23:10:08.155Z,4.93
2023-03-17T23:13:14.296Z,5.03
2023-03-17T23:16:22.243Z,5.08
2023-03-17T23:19:28.032Z,5.02
2023-03-17T23:22:37.387Z,4.98
2023-03-17T23:25:43.786Z,4.92
2023-03-17T23:28:50.478Z,4.83
2023-03-17T23:31:56.324Z,4.74
2023-03-17T23:35:03.029Z,4.65
2023-03-17T23:38:11.513Z,4.56
2023-03-17T23:41:18.636Z,4.54
2023-03-17T23:44:24.619Z,4.54
2023-03-17T23:47:32.188Z,4.56
2023-03-17T23:50:38.342Z,4.56
2023-03-17T23:53:48.224Z,4.63
2023-03-17T23:56:54.424Z,4.64
